| time (UTC) | temp F | wind direction | speed MPH | gust MPH | rain 1hr in | rain 24hr in | rain mn in | humidity % | barometer mb |
| 20260903214204 | 78 | 225 | 1.0 | 8.0 | 0.00 | 0.02 | 0.02 | 74 | |
| 20260903213204 | 77 | 234 | 2.0 | 8.0 | 0.00 | 0.02 | 0.02 | 74 | |
| 20260903212203 | 77 | 222 | 2.0 | 7.0 | 0.00 | 0.02 | 0.02 | 73 | |
| 20260903211204 | 77 | 205 | 1.0 | 6.0 | 0.00 | 0.02 | 0.02 | 73 | |
| 20260903210204 | 76 | 211 | 0.0 | 8.0 | 0.00 | 0.02 | 0.02 | 73 | |
| 20260903205204 | 76 | 218 | 2.0 | 7.0 | 0.00 | 0.02 | 0.02 | 72 | |
| 20260903204203 | 76 | 266 | 2.0 | 9.0 | 0.00 | 0.02 | 0.02 | 71 | |
| 20260903203205 | 76 | 229 | 2.0 | 9.0 | 0.02 | 0.02 | 0.02 | 71 | |
| 20260903202204 | 77 | 243 | 2.0 | 7.0 | 0.02 | 0.02 | 0.02 | 70 | |
| 20260903201204 | 77 | 225 | 2.0 | 8.0 | 0.02 | 0.02 | 0.02 | 68 | |
| 20260903200204 | 78 | 247 | 1.0 | 8.0 | 0.02 | 0.02 | 0.02 | 65 | |
| 20260903195204 | 78 | 237 | 3.0 | 8.0 | 0.02 | 0.02 | 0.02 | 65 | |
| 20260903194204 | 78 | 214 | 2.0 | 10.0 | 0.02 | 0.02 | 0.02 | 66 | |
| 20260903193204 | 81 | 231 | 1.0 | 8.0 | 0.00 | 0.00 | 0.00 | 64 | |
| 20260903192204 | 81 | 213 | 1.0 | 6.0 | 0.00 | 0.00 | 0.00 | 66 | |
| 20260903191204 | 80 | 151 | 2.0 | 9.0 | 0.00 | 0.00 | 0.00 | 64 | |
| 20260903190204 | 79 | 139 | 0.0 | 5.0 | 0.00 | 0.00 | 0.00 | 70 | |
| 20260903185204 | 79 | 257 | 2.0 | 6.0 | 0.00 | 0.00 | 0.00 | 70 | |
| 20260903184204 | 78 | 159 | 1.0 | 5.0 | 0.00 | 0.00 | 0.00 | 73 | |
| 20260903183204 | 77 | 135 | 0.0 | 1.0 | 0.00 | 0.00 | 0.00 | 77 | |
| 20260903182203 | 77 | 130 | 0.0 | 2.0 | 0.00 | 0.00 | 0.00 | 78 | |
| 20260903181204 | 77 | 92 | 0.0 | 3.0 | 0.00 | 0.00 | 0.00 | 77 | |
| 20260903180204 | 77 | 85 | 0.0 | 0.0 | 0.00 | 0.00 | 0.00 | 78 | |
| 20260903175204 | 76 | 85 | 0.0 | 0.0 | 0.00 | 0.00 | 0.00 | 77 | |
| 20260903174204 | 76 | 85 | 0.0 | 0.0 | 0.00 | 0.00 | 0.00 | 78 | |
| 20260903173204 | 75 | 85 | 0.0 | 0.0 | 0.00 | 0.00 | 0.00 | 81 | |
| 20260903172204 | 75 | 85 | 0.0 | 3.0 | 0.00 | 0.00 | 0.00 | 82 | |
| 20260903171204 | 75 | 216 | 1.0 | 6.0 | 0.00 | 0.00 | 0.00 | 87 | |
| 20260903170204 | 73 | 150 | 0.0 | 2.0 | 0.00 | 0.00 | 0.00 | 92 | |
| 20260903165204 | 72 | 219 | 0.0 | 1.0 | 0.00 | 0.00 | 0.00 | 89 | |
| 20260903164204 | 73 | 305 | 0.0 | 2.0 | 0.00 | 0.00 | 0.00 | 88 | |
| 20260903163204 | 73 | 268 | 0.0 | 5.0 | 0.00 | 0.00 | 0.00 | 87 | |
| 20260903162204 | 72 | 218 | 2.0 | 6.0 | 0.00 | 0.00 | 0.00 | 87 | |
| 20260903161204 | 72 | 106 | 0.0 | 1.0 | 0.00 | 0.00 | 0.00 | 90 | |
| 20260903160204 | 72 | 218 | 1.0 | 2.0 | 0.00 | 0.00 | 0.00 | 89 | |
| 20260903155204 | 72 | 79 | 0.0 | 1.0 | 0.00 | 0.00 | 0.00 | 88 | |
| 20260903154204 | 71 | 92 | 0.0 | 5.0 | 0.00 | 0.00 | 0.00 | 91 | |
| 20260903153204 | 70 | 45 | 0.0 | 2.0 | 0.00 | 0.00 | 0.00 | 93 | |
| 20260903152204 | 69 | 156 | 0.0 | 2.0 | 0.00 | 0.00 | 0.00 | 93 | |
| 20260903151204 | 69 | 69 | 0.0 | 3.0 | 0.00 | 0.00 | 0.00 | 92 | |
| 20260903150203 | 69 | 89 | 2.0 | 5.0 | 0.00 | 0.00 | 0.00 | 91 | |
| 20260903145203 | 69 | 38 | 0.0 | 1.0 | 0.00 | 0.00 | 0.00 | 90 | |
| 20260903144204 | 69 | 190 | 2.0 | 7.0 | 0.00 | 0.00 | 0.00 | 88 | |
| 20260903143205 | 70 | 258 | 2.0 | 6.0 | 0.00 | 0.00 | 0.00 | 87 | |
| 20260903142204 | 70 | 345 | 1.0 | 8.0 | 0.00 | 0.00 | 0.00 | 83 | |
| 20260903141204 | 71 | 328 | 3.0 | 10.0 | 0.00 | 0.00 | 0.00 | 80 | |
| 20260903140203 | 73 | 274 | 3.0 | 10.0 | 0.00 | 0.00 | 0.00 | 77 | |
| 20260903135204 | 75 | 279 | 4.0 | 17.0 | 0.00 | 0.00 | 0.00 | 75 | |
| 20260903134203 | 75 | 302 | 7.0 | 16.0 | 0.00 | 0.00 | 0.00 | 72 | |
| 20260903133204 | 76 | 297 | 9.0 | 17.0 | 0.00 | 0.00 | 0.00 | 75 | |
| 20260903132204 | 76 | 271 | 3.0 | 10.0 | 0.00 | 0.00 | 0.00 | 79 | |
| 20260903131204 | 75 | 249 | 2.0 | 7.0 | 0.00 | 0.00 | 0.00 | 81 | |
| 20260903130208 | 75 | 246 | 0.0 | 3.0 | 0.00 | 0.00 | 0.00 | 83 | |
| 20260903125208 | 75 | 221 | 1.0 | 1.0 | 0.00 | 0.00 | 0.00 | 84 | |
| 20260903124204 | 75 | 333 | 0.0 | 0.0 | 0.00 | 0.00 | 0.00 | 84 | |
| 20260903123204 | 76 | 333 | 0.0 | 1.0 | 0.00 | 0.00 | 0.00 | 83 | |
| 20260903122205 | 75 | 235 | 0.0 | 3.0 | 0.00 | 0.00 | 0.00 | 83 | |
| 20260903121204 | 75 | 355 | 2.0 | 5.0 | 0.00 | 0.00 | 0.00 | 84 | |
| 20260903120204 | 75 | 326 | 3.0 | 6.0 | 0.00 | 0.00 | 0.00 | 85 | |
| 20260903115204 | 75 | 308 | 2.0 | 5.0 | 0.00 | 0.00 | 0.00 | 84 | |
| 20260903114204 | 75 | 318 | 1.0 | 2.0 | 0.00 | 0.00 | 0.00 | 85 | |
| 20260903113204 | 74 | 358 | 1.0 | 5.0 | 0.00 | 0.00 | 0.00 | 86 | |
| 20260903112208 | 74 | 256 | 1.0 | 5.0 | 0.00 | 0.00 | 0.00 | 87 | |
| 20260903111204 | 74 | 232 | 1.0 | 3.0 | 0.00 | 0.00 | 0.00 | 88 | |
| 20260903110204 | 74 | 277 | 0.0 | 3.0 | 0.00 | 0.00 | 0.00 | 89 | |
| 20260903105204 | 74 | 267 | 1.0 | 5.0 | 0.00 | 0.00 | 0.00 | 89 | |
| 20260903104204 | 73 | 235 | 0.0 | 3.0 | 0.00 | 0.00 | 0.00 | 89 | |
| 20260903103203 | 74 | 255 | 1.0 | 3.0 | 0.00 | 0.00 | 0.00 | 90 | |
| 20260903102204 | 74 | 222 | 0.0 | 3.0 | 0.00 | 0.00 | 0.00 | 90 | |
| 20260903101204 | 74 | 264 | 1.0 | 3.0 | 0.00 | 0.00 | 0.00 | 90 | |
| 20260903100205 | 74 | 234 | 1.0 | 5.0 | 0.00 | 0.00 | 0.00 | 91 | |
| 20260903095204 | 73 | 262 | 0.0 | 2.0 | 0.00 | 0.00 | 0.00 | 90 | |
| 20260903094204 | 74 | 230 | 0.0 | 3.0 | 0.00 | 0.00 | 0.00 | 90 | |
| 20260903093204 | 74 | 222 | 1.0 | 5.0 | 0.00 | 0.00 | 0.00 | 91 | |
| 20260903092204 | 74 | 222 | 1.0 | 3.0 | 0.00 | 0.00 | 0.00 | 90 | |
| 20260903091204 | 74 | 215 | 0.0 | 3.0 | 0.00 | 0.00 | 0.00 | 90 | |
| 20260903090204 | 74 | 152 | 1.0 | 3.0 | 0.00 | 0.00 | 0.00 | 90 | |
| 20260903085204 | 74 | 251 | 0.0 | 5.0 | 0.00 | 0.00 | 0.00 | 89 | |
| 20260903084204 | 75 | 209 | 0.0 | 6.0 | 0.00 | 0.00 | 0.00 | 89 | |
| 20260903083204 | 74 | 91 | 1.0 | 3.0 | 0.00 | 0.00 | 0.00 | 89 | |
| 20260903082204 | 75 | 172 | 1.0 | 5.0 | 0.00 | 0.00 | 0.00 | 90 | |
| 20260903081204 | 74 | 198 | 1.0 | 2.0 | 0.00 | 0.00 | 0.00 | 90 | |
| 20260903080203 | 75 | 235 | 1.0 | 5.0 | 0.00 | 0.00 | 0.00 | 90 | |
| 20260903075204 | 75 | 239 | 1.0 | 2.0 | 0.00 | 0.00 | 0.00 | 90 | |
| 20260903074204 | 74 | 235 | 1.0 | 5.0 | 0.00 | 0.00 | 0.00 | 90 | |
| 20260903073204 | 74 | 205 | 1.0 | 3.0 | 0.00 | 0.00 | 0.00 | 88 | |
| 20260903072204 | 74 | 261 | 0.0 | 2.0 | 0.00 | 0.00 | 0.00 | 88 | |
| 20260903071204 | 74 | 209 | 0.0 | 2.0 | 0.00 | 0.00 | 0.00 | 86 | |
| 20260903070204 | 74 | 199 | 0.0 | 1.0 | 0.00 | 0.00 | 0.00 | 87 | |
| 20260903065204 | 73 | 260 | 0.0 | 3.0 | 0.00 | 0.00 | 0.00 | 88 | |
| 20260903064204 | 72 | 163 | 0.0 | 2.0 | 0.00 | 0.00 | 0.00 | 91 | |
| 20260903063204 | 71 | 270 | 0.0 | 0.0 | 0.00 | 0.00 | 0.00 | 90 | |
| 20260903062204 | 71 | 270 | 0.0 | 0.0 | 0.00 | 0.00 | 0.00 | 90 | |
| 20260903061203 | 71 | 270 | 0.0 | 0.0 | 0.00 | 0.00 | 0.00 | 91 | |
| 20260903060205 | 71 | 270 | 0.0 | 0.0 | 0.00 | 0.00 | 0.00 | 90 | |
| 20260903055203 | 71 | 270 | 0.0 | 0.0 | 0.00 | 0.00 | 0.00 | 90 | |
| 20260903054204 | 72 | 270 | 0.0 | 0.0 | 0.00 | 0.00 | 0.00 | 89 | |
| 20260903053204 | 72 | 270 | 0.0 | 0.0 | 0.00 | 0.00 | 0.00 | 90 | |
| 20260903052204 | 72 | 270 | 0.0 | 0.0 | 0.00 | 0.00 | 0.00 | 89 | |
| 20260903051204 | 72 | 270 | 0.0 | 0.0 | 0.00 | 0.00 | 0.00 | 89 | |
| 20260903050204 | 72 | 270 | 0.0 | 0.0 | 0.00 | 0.00 | 0.00 | 89 | |
| 20260903045205 | 72 | 270 | 0.0 | 0.0 | 0.00 | 0.00 | 0.00 | 88 | |
| 20260903044204 | 72 | 270 | 0.0 | 0.0 | 0.00 | 0.00 | 0.00 | 88 | |
| 20260903043204 | 72 | 270 | 0.0 | 0.0 | 0.00 | 0.00 | 0.00 | 88 | |
| 20260903042204 | 72 | 270 | 0.0 | 0.0 | 0.00 | 0.00 | 0.00 | 87 | |
| 20260903041204 | 73 | 270 | 0.0 | 0.0 | 0.00 | 0.00 | 0.00 | 86 | |
| 20260903040204 | 73 | 270 | 0.0 | 0.0 | 0.00 | 0.00 | 0.00 | 85 | |
| 20260903035204 | 73 | 270 | 0.0 | 0.0 | 0.00 | 0.00 | 0.00 | 85 | |
| 20260903034204 | 73 | 270 | 0.0 | 0.0 | 0.00 | 0.00 | 0.00 | 85 | |
| 20260903033204 | 73 | 270 | 0.0 | 0.0 | 0.00 | 0.00 | 0.00 | 86 | |
| 20260903032208 | 73 | 270 | 0.0 | 0.0 | 0.00 | 0.00 | 0.00 | 85 | |
| 20260903031203 | 73 | 270 | 0.0 | 0.0 | 0.00 | 0.00 | 0.00 | 86 | |
| 20260903030204 | 73 | 270 | 0.0 | 0.0 | 0.00 | 0.00 | 0.00 | 86 | |
| 20260903025203 | 73 | 270 | 0.0 | 0.0 | 0.00 | 0.00 | 0.00 | 85 | |
| 20260903024203 | 73 | 270 | 0.0 | 0.0 | 0.00 | 0.00 | 0.00 | 85 | |
| 20260903023204 | 72 | 270 | 0.0 | 0.0 | 0.00 | 0.00 | 0.00 | 84 | |
| 20260903022204 | 72 | 270 | 0.0 | 0.0 | 0.00 | 0.00 | 0.00 | 84 | |
| 20260903021204 | 72 | 270 | 0.0 | 0.0 | 0.00 | 0.00 | 0.00 | 83 | |
| 20260903020204 | 72 | 270 | 0.0 | 0.0 | 0.00 | 0.00 | 0.00 | 82 | |
| 20260903015204 | 73 | 270 | 0.0 | 0.0 | 0.00 | 0.00 | 0.00 | 81 | |
| 20260903014204 | 73 | 270 | 0.0 | 0.0 | 0.00 | 0.00 | 0.00 | 81 | |
| 20260903013203 | 73 | 270 | 0.0 | 0.0 | 0.00 | 0.00 | 0.00 | 80 | |
| 20260903012204 | 73 | 270 | 0.0 | 0.0 | 0.00 | 0.00 | 0.00 | 78 | |
| 20260903011204 | 72 | 270 | 0.0 | 0.0 | 0.00 | 0.00 | 0.00 | 77 | |
| 20260903010203 | 72 | 270 | 0.0 | 0.0 | 0.00 | 0.00 | 0.00 | 76 | |
| 20260903005203 | 75 | 270 | 0.0 | 0.0 | 0.00 | 0.00 | 0.00 | 74 | |
| 20260903004204 | 76 | 270 | 0.0 | 0.0 | 0.00 | 0.00 | 0.00 | 73 | |
| 20260903003204 | 77 | 270 | 0.0 | 0.0 | 0.00 | 0.00 | 0.00 | 72 | |
| 20260903002204 | 78 | 270 | 0.0 | 0.0 | 0.00 | 0.00 | 0.00 | 70 | |
| 20260903001204 | 79 | 270 | 0.0 | 0.0 | 0.00 | 0.00 | 0.00 | 69 | |
| 20260903000204 | 81 | 270 | 0.0 | 0.0 | 0.00 | 0.00 | 0.00 | 66 | |
| 20260902235203 | 82 | 270 | 0.0 | 0.0 | 0.00 | 0.00 | 0.00 | 63 | |
| 20260902234204 | 83 | 270 | 0.0 | 0.0 | 0.00 | 0.00 | 0.00 | 62 | |
| 20260902233203 | 84 | 270 | 0.0 | 1.0 | 0.00 | 0.00 | 0.00 | 59 | |
| 20260902232203 | 85 | 282 | 1.0 | 2.0 | 0.00 | 0.00 | 0.00 | 57 | |
| 20260902231212 | 86 | 296 | 0.0 | 2.0 | 0.00 | 0.00 | 0.00 | 55 | |
| 20260902230204 | 86 | 298 | 1.0 | 2.0 | 0.00 | 0.00 | 0.00 | 53 | |
| 20260902225204 | 86 | 267 | 0.0 | 3.0 | 0.00 | 0.00 | 0.00 | 53 | |
| 20260902224204 | 86 | 296 | 1.0 | 3.0 | 0.00 | 0.00 | 0.00 | 51 | |
| 20260902223204 | 86 | 239 | 1.0 | 3.0 | 0.00 | 0.00 | 0.00 | 54 | |
| 20260902222204 | 84 | 304 | 1.0 | 2.0 | 0.00 | 0.00 | 0.00 | 59 | |
| 20260902221204 | 83 | 343 | 1.0 | 5.0 | 0.00 | 0.00 | 0.00 | 61 | |
| 20260902220204 | 83 | 307 | 0.0 | 2.0 | 0.00 | 0.00 | 0.00 | 62 | |
| 20260902215204 | 83 | 216 | 0.0 | 3.0 | 0.00 | 0.00 | 0.00 | 63 |